Time;durP1;ratioP1;P1;durP2;ratioP2;P2;SDS_P1;SDS_P2;PMS_P1;PMS_P2;Temp;Humidity;BMP_temperature;BMP_pressure;BME280_temperature;BME280_humidity;BME280_pressure;Samples;Min_cycle;Max_cycle;Signal;HPM_P1;HPM_P2
2021/09/13 00:00:39;;;;;;;;;7.50;7.50;;;;;20.38;50.07;101433.38;5018251;28;45448;-79
2021/09/13 00:03:05;;;;;;;;;8.25;7.75;;;;;20.35;50.70;101433.34;5018963;28;45855;-78
2021/09/13 00:05:31;;;;;;;;;9.00;9.00;;;;;20.35;50.82;101435.06;5019731;28;45228;-79
2021/09/13 00:07:56;;;;;;;;;9.75;9.00;;;;;20.32;50.80;101435.91;5018148;28;45346;-79
2021/09/13 00:10:23;;;;;;;;;9.00;8.75;;;;;20.32;50.59;101429.75;5017432;28;45355;-79
2021/09/13 00:12:49;;;;;;;;;11.50;10.50;;;;;20.32;50.47;101433.28;5018453;28;46262;-79
2021/09/13 00:15:14;;;;;;;;;7.00;6.00;;;;;20.32;50.65;101433.28;5018076;28;45337;-80
2021/09/13 00:17:40;;;;;;;;;8.00;7.25;;;;;20.33;50.55;101424.53;5022242;28;45316;-83
2021/09/13 00:20:06;;;;;;;;;8.50;7.00;;;;;20.37;50.46;101426.34;5023852;28;45298;-84
2021/09/13 00:22:32;;;;;;;;;7.25;7.25;;;;;20.37;50.14;101423.72;5019112;28;46036;-82
2021/09/13 00:24:57;;;;;;;;;6.50;6.00;;;;;20.37;49.83;101428.97;5018402;28;45663;-83
2021/09/13 00:27:23;;;;;;;;;4.25;4.25;;;;;20.34;49.97;101420.16;5019118;28;45362;-82
2021/09/13 00:29:49;;;;;;;;;6.75;6.75;;;;;20.28;49.92;101404.31;5022779;28;45392;-88
2021/09/13 00:32:14;;;;;;;;;5.50;5.00;;;;;20.27;50.33;101406.03;5019244;28;45931;-80
2021/09/13 00:34:40;;;;;;;;;5.00;5.00;;;;;20.27;50.13;101408.66;5019569;28;45488;-85
2021/09/13 00:37:05;;;;;;;;;7.00;6.00;;;;;20.29;50.47;101411.34;5018100;28;45356;-78
2021/09/13 00:39:31;;;;;;;;;7.00;7.00;;;;;20.27;49.89;101406.03;5020298;28;45379;-81
2021/09/13 00:41:57;;;;;;;;;7.00;6.50;;;;;20.26;50.16;101406.88;5018053;28;46124;-78
2021/09/13 00:44:24;;;;;;;;;6.25;6.25;;;;;20.23;50.06;101413.00;5018685;28;45863;-82
2021/09/13 00:46:49;;;;;;;;;6.75;6.00;;;;;20.16;50.18;101399.72;5022712;28;45283;-81
2021/09/13 00:49:15;;;;;;;;;5.50;5.50;;;;;20.09;50.71;101399.66;5022524;28;45636;-82
2021/09/13 00:51:41;;;;;;;;;9.00;7.00;;;;;20.04;50.99;101395.19;5020843;28;45281;-78
2021/09/13 00:54:07;;;;;;;;;6.75;6.75;;;;;20.03;50.63;101403.94;5017076;28;45340;-80
2021/09/13 00:56:33;;;;;;;;;8.50;8.00;;;;;19.97;51.51;101395.97;5017701;28;45520;-80
2021/09/13 00:58:58;;;;;;;;;6.00;6.00;;;;;19.94;51.49;101391.53;5017217;28;45358;-79
2021/09/13 01:01:24;;;;;;;;;7.75;7.50;;;;;19.89;51.50;101388.81;5016932;28;46355;-79
2021/09/13 01:03:50;;;;;;;;;7.25;7.25;;;;;19.89;52.45;101388.81;5017476;28;45330;-79
2021/09/13 01:06:16;;;;;;;;;6.00;5.00;;;;;19.89;52.33;101394.09;5017097;28;45331;-81
2021/09/13 01:08:43;;;;;;;;;7.00;6.25;;;;;19.89;52.58;101391.44;5017131;28;45803;-79
2021/09/13 01:11:10;;;;;;;;;6.00;6.00;;;;;19.92;52.19;101393.28;5016985;28;45306;-81
2021/09/13 01:13:35;;;;;;;;;7.00;7.00;;;;;19.90;52.52;101402.88;5017897;28;45825;-83
2021/09/13 01:16:05;;;;;;;;;7.75;6.25;;;;;19.88;52.25;101405.44;5021678;28;45370;-80
2021/09/13 01:18:30;;;;;;;;;7.50;6.00;;;;;19.88;52.67;101410.72;5022226;28;45288;-82
2021/09/13 01:20:57;;;;;;;;;5.00;5.00;;;;;19.85;52.67;101400.13;5021591;28;46531;-80
2021/09/13 01:23:30;;;;;;;;;7.75;7.00;;;;;19.89;52.82;101403.72;5019327;28;45861;-79
2021/09/13 01:25:55;;;;;;;;;8.50;6.75;;;;;19.89;52.32;101403.72;5017521;28;45474;-81
2021/09/13 01:28:22;;;;;;;;;6.00;6.00;;;;;19.88;52.71;101396.69;5017626;28;45236;-79
2021/09/13 01:30:47;;;;;;;;;11.25;8.50;;;;;19.86;52.79;101398.41;5016541;28;45489;-81
2021/09/13 01:33:13;;;;;;;;;7.75;7.75;;;;;19.83;52.82;101388.72;5016523;28;45259;-78
2021/09/13 01:35:39;;;;;;;;;10.25;9.00;;;;;19.82;52.56;101391.28;5015231;28;45455;-80
2021/09/13 01:38:05;;;;;;;;;7.00;7.00;;;;;19.81;52.28;101382.53;5016678;28;45621;-79
2021/09/13 01:40:31;;;;;;;;;7.75;6.75;;;;;19.82;52.74;101391.28;5017008;28;45303;-78
2021/09/13 01:43:01;;;;;;;;;9.00;7.00;;;;;19.80;52.76;101380.78;5020159;28;45211;-79
2021/09/13 01:45:27;;;;;;;;;6.00;5.00;;;;;19.82;53.04;101378.16;5022547;28;45421;-78
2021/09/13 01:47:53;;;;;;;;;7.75;5.50;;;;;19.81;52.65;101382.53;5019954;28;45835;-78
2021/09/13 01:50:19;;;;;;;;;7.50;7.25;;;;;19.77;52.46;101383.34;5016861;28;45369;-80
2021/09/13 01:52:45;;;;;;;;;6.00;5.25;;;;;19.76;52.83;101382.47;5016719;28;45308;-78
2021/09/13 01:55:11;;;;;;;;;7.00;7.00;;;;;19.73;52.96;101376.28;5016989;28;45362;-82
2021/09/13 01:57:37;;;;;;;;;5.75;5.75;;;;;19.77;52.70;101385.97;5017154;28;45498;-84
2021/09/13 02:00:04;;;;;;;;;5.00;5.00;;;;;19.77;52.99;101392.13;5018140;28;45438;-84
2021/09/13 02:02:30;;;;;;;;;7.50;7.25;;;;;19.75;52.93;101387.72;5016709;28;45749;-85
2021/09/13 02:04:55;;;;;;;;;9.50;7.75;;;;;19.68;52.51;101378.84;5017278;28;45335;-82
2021/09/13 02:07:21;;;;;;;;;7.25;7.25;;;;;19.64;52.49;101391.06;5018053;28;45505;-89
2021/09/13 02:09:48;;;;;;;;;7.50;5.25;;;;;19.60;53.21;101390.94;5017497;28;45528;-82
2021/09/13 02:12:14;;;;;;;;;8.00;7.00;;;;;19.56;52.52;101383.88;5025581;28;45284;-87
2021/09/13 02:14:40;;;;;;;;;6.50;6.00;;;;;19.50;53.25;101384.66;5025148;28;45505;-87
2021/09/13 02:17:06;;;;;;;;;9.50;7.50;;;;;19.52;52.89;101396.09;5018656;28;45364;-84
2021/09/13 02:19:32;;;;;;;;;10.75;7.50;;;;;19.47;53.20;101389.88;5017104;28;46045;-80
2021/09/13 02:21:57;;;;;;;;;10.25;9.75;;;;;19.43;53.26;101386.31;5019870;28;45331;-80
2021/09/13 02:24:23;;;;;;;;;7.25;7.00;;;;;19.40;53.75;101395.88;5021264;28;45431;-79
2021/09/13 02:26:48;;;;;;;;;10.00;7.75;;;;;19.37;54.40;101394.09;5022652;28;45425;-80
2021/09/13 02:29:15;;;;;;;;;7.25;7.25;;;;;19.32;53.93;101391.38;5020211;28;45457;-85
2021/09/13 02:31:40;;;;;;;;;12.25;9.50;;;;;19.27;54.34;101381.66;5020939;28;45663;-83
2021/09/13 02:34:06;;;;;;;;;9.50;9.00;;;;;19.25;54.77;101384.22;5020642;28;45421;-83
2021/09/13 02:36:31;;;;;;;;;11.25;7.00;;;;;19.23;54.40;101387.69;5021546;28;45338;-86
2021/09/13 02:38:57;;;;;;;;;8.50;8.50;;;;;19.22;54.68;101392.03;5024621;28;46046;-80
2021/09/13 02:41:23;;;;;;;;;7.50;7.00;;;;;19.20;54.49;101391.16;5028946;28;45421;-79
2021/09/13 02:43:48;;;;;;;;;10.25;10.00;;;;;19.19;54.74;101389.38;5026639;28;45335;-79
2021/09/13 02:46:15;;;;;;;;;8.25;8.25;;;;;19.16;54.88;101394.56;5023066;28;45232;-81
2021/09/13 02:48:41;;;;;;;;;9.50;8.50;;;;;19.14;55.36;101391.91;5020323;28;45414;-83
2021/09/13 02:51:07;;;;;;;;;10.50;8.75;;;;;19.08;55.21;101397.03;5020819;28;45854;-83
2021/09/13 02:53:34;;;;;;;;;12.00;10.00;;;;;19.06;55.51;101401.38;5021901;28;45189;-87
2021/09/13 02:56:00;;;;;;;;;12.00;8.00;;;;;19.03;55.56;101393.47;5023731;28;45311;-87
2021/09/13 02:58:26;;;;;;;;;9.25;9.25;;;;;19.01;55.88;101388.16;5032929;28;46094;-85
2021/09/13 03:00:51;;;;;;;;;12.75;8.25;;;;;18.95;56.34;101381.94;5041406;28;45353;-88
2021/09/13 03:03:17;;;;;;;;;11.25;9.00;;;;;18.91;55.84;101374.81;5043397;28;45409;-90
2021/09/13 03:05:43;;;;;;;;;10.25;9.00;;;;;18.87;55.82;101377.38;5043243;28;45260;-92
2021/09/13 03:08:09;;;;;;;;;10.75;8.25;;;;;18.87;56.87;101377.38;5045184;28;45230;-86
2021/09/13 03:10:35;;;;;;;;;9.00;8.00;;;;;18.79;56.72;101375.47;5049042;28;45379;-91
2021/09/13 03:13:01;;;;;;;;;13.25;8.25;;;;;18.76;56.80;101372.78;5046971;28;45251;-86
2021/09/13 03:15:26;;;;;;;;;11.50;10.50;;;;;18.74;57.08;101377.97;5042355;28;45724;-79
2021/09/13 03:17:52;;;;;;;;;10.25;10.25;;;;;18.74;56.91;101377.97;5039495;28;46007;-79
2021/09/13 03:20:18;;;;;;;;;8.50;8.50;;;;;18.75;56.99;101379.75;5039197;28;45316;-80
2021/09/13 03:22:43;;;;;;;;;10.00;9.00;;;;;18.77;57.53;101377.16;5038474;28;45329;-80
2021/09/13 03:25:10;;;;;;;;;10.25;9.50;;;;;18.71;57.31;101368.31;5038623;28;45661;-80
2021/09/13 03:27:35;;;;;;;;;9.75;9.00;;;;;18.65;57.07;101367.28;5038983;28;45932;-79
2021/09/13 03:30:01;;;;;;;;;10.25;7.75;;;;;18.62;56.90;101364.63;5038312;28;45251;-80
2021/09/13 03:32:27;;;;;;;;;10.00;8.25;;;;;18.62;57.61;101365.50;5042327;28;45283;-78
2021/09/13 03:34:52;;;;;;;;;12.75;11.50;;;;;18.59;57.14;101365.44;5045979;28;45531;-78
2021/09/13 03:37:18;;;;;;;;;7.50;7.50;;;;;18.60;57.11;101361.09;5046797;28;45311;-78
2021/09/13 03:39:44;;;;;;;;;14.25;11.75;;;;;18.59;57.54;101360.19;5040974;28;45465;-79
2021/09/13 03:42:10;;;;;;;;;11.75;11.00;;;;;18.61;57.86;101352.38;5039216;28;45473;-82
2021/09/13 03:44:35;;;;;;;;;9.50;9.00;;;;;18.61;57.27;101368.97;5039529;28;45334;-78
2021/09/13 03:47:01;;;;;;;;;12.00;10.50;;;;;18.57;57.71;101351.44;5040147;28;46512;-82
2021/09/13 03:49:26;;;;;;;;;11.75;10.25;;;;;18.60;57.56;101364.59;5041002;28;45264;-85
2021/09/13 03:51:52;;;;;;;;;10.75;9.25;;;;;18.60;57.27;101363.72;5042125;28;45233;-84
2021/09/13 03:54:18;;;;;;;;;15.25;10.50;;;;;18.61;57.20;101362.88;5039623;28;45573;-80
2021/09/13 03:56:43;;;;;;;;;11.25;10.25;;;;;18.61;57.41;101355.88;5038057;28;45491;-78
2021/09/13 03:59:09;;;;;;;;;9.75;9.75;;;;;18.58;57.45;101357.53;5037784;28;45344;-77
2021/09/13 04:01:35;;;;;;;;;10.50;9.50;;;;;18.53;57.55;101360.06;5037925;28;45334;-78
2021/09/13 04:04:03;;;;;;;;;11.50;10.00;;;;;18.51;57.83;101365.28;5040778;28;45311;-78
2021/09/13 04:14:14;;;;;;;;;15.00;12.00;;;;;18.44;58.16;101357.25;5037713;28;45390;-79
2021/09/13 04:16:41;;;;;;;;;10.75;10.00;;;;;18.44;58.03;101360.75;5037432;28;46013;-79
2021/09/13 04:19:07;;;;;;;;;14.50;9.50;;;;;18.46;58.00;101364.31;5052870;28;45770;-80
2021/09/13 04:21:32;;;;;;;;;12.75;11.50;;;;;18.43;57.97;101361.59;5037685;28;45311;-79
2021/09/13 04:23:58;;;;;;;;;11.00;11.00;;;;;18.45;57.89;101352.03;5037931;28;45685;-82
2021/09/13 04:26:24;;;;;;;;;14.50;13.25;;;;;18.46;58.06;101345.94;5052839;28;47119;-81
2021/09/13 04:28:49;;;;;;;;;17.00;13.00;;;;;18.44;57.97;101352.03;5037594;28;45470;-78
2021/09/13 04:31:15;;;;;;;;;13.25;10.75;;;;;18.40;58.14;101348.44;5038406;28;45346;-78
2021/09/13 04:33:41;;;;;;;;;14.25;10.50;;;;;18.39;58.29;101341.44;5044198;28;45323;-78
2021/09/13 04:36:06;;;;;;;;;15.25;12.75;;;;;18.43;58.26;101342.38;5037232;28;45870;-77
2021/09/13 04:38:32;;;;;;;;;13.00;10.75;;;;;18.40;58.17;101343.22;5037325;28;45268;-78
2021/09/13 04:40:58;;;;;;;;;15.75;14.75;;;;;18.40;58.13;101335.34;5036994;28;45393;-78
2021/09/13 04:43:23;;;;;;;;;11.75;10.00;;;;;18.39;58.11;101337.06;5037057;28;45382;-78
2021/09/13 04:45:49;;;;;;;;;11.25;10.50;;;;;18.40;58.24;101337.97;5052686;28;45920;-77
2021/09/13 04:48:14;;;;;;;;;14.00;12.00;;;;;18.41;58.73;101340.59;5036979;28;45385;-77
2021/09/13 04:50:40;;;;;;;;;8.75;8.75;;;;;18.40;58.29;101341.47;5037071;28;45317;-77
2021/09/13 04:53:05;;;;;;;;;12.25;11.75;;;;;18.44;57.92;101346.78;5037117;28;45418;-78
2021/09/13 04:55:31;;;;;;;;;12.00;12.00;;;;;18.45;58.47;101353.78;5037039;28;45444;-77
2021/09/13 04:57:57;;;;;;;;;9.50;9.50;;;;;18.46;58.13;101355.56;5035922;28;45286;-81
2021/09/13 05:00:23;;;;;;;;;11.50;11.50;;;;;18.42;58.25;101359.84;5041306;28;45318;-79
2021/09/13 05:02:49;;;;;;;;;17.00;13.25;;;;;18.37;58.48;101358.88;5043340;28;45271;-79
2021/09/13 05:05:15;;;;;;;;;13.25;10.25;;;;;18.34;58.31;101354.44;5037192;28;45571;-78
2021/09/13 05:07:40;;;;;;;;;14.75;11.25;;;;;18.32;58.53;101345.66;5037020;28;45271;-81
2021/09/13 05:10:06;;;;;;;;;12.25;11.50;;;;;18.32;58.72;101343.03;5036657;28;45357;-78
2021/09/13 05:12:32;;;;;;;;;12.75;12.50;;;;;18.25;58.34;101339.41;5037579;28;45328;-79
2021/09/13 05:14:57;;;;;;;;;14.75;12.75;;;;;18.22;58.67;101339.31;5051993;28;47411;-77
2021/09/13 05:17:23;;;;;;;;;13.25;11.75;;;;;18.18;58.88;101337.50;5037047;28;45421;-78
2021/09/13 05:19:49;;;;;;;;;14.00;11.25;;;;;18.14;58.67;101332.16;5037525;28;45321;-77
2021/09/13 05:22:14;;;;;;;;;15.25;11.50;;;;;18.12;59.09;101336.47;5038547;28;45181;-78
2021/09/13 05:24:40;;;;;;;;;19.50;16.50;;;;;18.12;59.07;101337.34;5037638;28;45632;-77
2021/09/13 05:27:05;;;;;;;;;13.50;13.25;;;;;18.17;59.08;101340.97;5036842;28;45223;-78
2021/09/13 05:29:31;;;;;;;;;11.75;11.25;;;;;18.19;58.81;101339.28;5041740;28;45318;-79
2021/09/13 05:31:57;;;;;;;;;16.25;14.75;;;;;18.21;59.02;101340.16;5036111;28;45413;-80
2021/09/13 05:34:23;;;;;;;;;15.25;13.25;;;;;18.22;59.07;101335.84;5044670;28;45389;-78
2021/09/13 05:36:48;;;;;;;;;14.00;11.75;;;;;18.21;59.01;101336.69;5024618;28;45540;-78
2021/09/13 05:39:14;;;;;;;;;10.50;10.25;;;;;18.21;59.16;101332.31;5024651;28;45323;-83
2021/09/13 05:41:40;;;;;;;;;12.00;11.75;;;;;18.25;58.71;101328.91;5024882;28;45574;-79
2021/09/13 05:44:06;;;;;;;;;16.00;14.75;;;;;18.27;58.84;101331.56;5025312;28;45457;-80
2021/09/13 05:46:33;;;;;;;;;14.75;14.25;;;;;18.28;58.80;101329.84;5026646;28;45322;-78
2021/09/13 05:48:58;;;;;;;;;9.50;9.50;;;;;18.26;58.91;101332.41;5021254;28;45438;-79
2021/09/13 05:51:24;;;;;;;;;17.25;16.00;;;;;18.25;58.84;101325.38;5034884;28;45429;-80
2021/09/13 05:53:50;;;;;;;;;16.00;15.00;;;;;18.23;59.44;101314.88;5036888;28;46046;-80
2021/09/13 05:56:16;;;;;;;;;20.50;14.00;;;;;18.33;58.92;101330.81;5052245;28;45521;-81
2021/09/13 05:58:41;;;;;;;;;13.25;11.50;;;;;18.36;58.90;101325.63;5059193;28;45319;-79
2021/09/13 06:01:07;;;;;;;;;13.00;13.00;;;;;18.37;58.81;101327.41;5054418;28;45357;-81
2021/09/13 06:03:33;;;;;;;;;14.50;10.00;;;;;18.41;58.79;101329.25;5039931;28;45544;-80
2021/09/13 06:05:58;;;;;;;;;12.50;12.50;;;;;18.45;58.80;101327.56;5036492;28;45457;-79
2021/09/13 06:08:24;;;;;;;;;15.00;14.00;;;;;18.46;58.76;101324.09;5029382;28;45495;-84
2021/09/13 06:10:49;;;;;;;;;13.50;12.50;;;;;18.48;59.02;101339.00;5040005;28;45491;-82
2021/09/13 06:13:15;;;;;;;;;12.75;11.75;;;;;18.50;58.74;101339.03;5036009;28;46103;-80
2021/09/13 06:15:41;;;;;;;;;12.75;12.00;;;;;18.54;58.68;101349.59;5048447;28;45431;-79
2021/09/13 06:18:08;;;;;;;;;15.75;14.00;;;;;18.55;58.64;101343.50;5030444;28;45327;-77
2021/09/13 06:20:34;;;;;;;;;14.75;13.75;;;;;18.55;58.64;101340.88;5021246;28;45521;-78
2021/09/13 06:23:00;;;;;;;;;12.25;12.00;;;;;18.58;59.05;101345.31;5024510;28;46159;-79
2021/09/13 06:25:25;;;;;;;;;15.50;14.50;;;;;18.61;58.89;101339.25;5019253;28;45361;-82
2021/09/13 06:27:51;;;;;;;;;16.00;16.00;;;;;18.60;59.30;101340.09;5021266;28;45354;-82
2021/09/13 06:30:19;;;;;;;;;13.25;12.75;;;;;18.63;59.19;101346.28;5024343;28;45407;-84
2021/09/13 06:32:48;;;;;;;;;19.50;17.00;;;;;18.65;58.86;101347.22;5037380;28;45461;-81
2021/09/13 06:35:14;;;;;;;;;13.25;12.50;;;;;18.66;59.06;101349.00;5034601;28;45423;-83
2021/09/13 06:37:39;;;;;;;;;14.00;13.25;;;;;18.69;58.91;101353.41;5024275;28;45421;-80
2021/09/13 06:40:06;;;;;;;;;14.00;13.00;;;;;18.68;59.14;101351.63;5044189;28;45461;-84
2021/09/13 06:42:32;;;;;;;;;18.75;15.50;;;;;18.74;59.02;101356.13;5043513;28;46163;-81
2021/09/13 06:44:58;;;;;;;;;15.50;13.50;;;;;18.76;58.91;101349.16;5034788;28;45445;-83
2021/09/13 06:49:55;;;;;;;;;16.00;14.00;;;;;18.85;58.66;101355.47;5021215;28;45374;-82
2021/09/13 06:52:21;;;;;;;;;16.50;15.50;;;;;18.93;58.30;101365.25;5020284;28;45525;-83
2021/09/13 06:54:47;;;;;;;;;17.75;14.75;;;;;18.88;58.51;101363.41;5034880;28;45461;-86
2021/09/13 06:57:13;;;;;;;;;15.75;14.75;;;;;18.86;58.74;101365.09;5026988;28;45446;-89
2021/09/13 06:59:43;;;;;;;;;16.75;16.50;;;;;18.88;58.41;101367.78;5024460;28;45003;-89
2021/09/13 07:02:09;;;;;;;;;16.75;16.50;;;;;18.93;58.24;101365.25;5034762;28;46520;-87
2021/09/13 07:04:35;;;;;;;;;19.50;15.75;;;;;18.97;58.78;101367.06;5025455;28;45391;-88
2021/09/13 07:07:06;;;;;;;;;16.50;13.50;;;;;18.91;58.52;101338.94;5039069;28;45635;-87
2021/09/13 07:09:32;;;;;;;;;31.50;29.00;;;;;19.01;58.52;101348.78;5040940;28;45516;-84
2021/09/13 07:11:58;;;;;;;;;15.75;15.00;;;;;19.13;58.20;101352.50;5020594;28;45897;-86
2021/09/13 07:14:24;;;;;;;;;19.00;14.25;;;;;19.15;58.09;101346.44;5035962;28;45748;-85
2021/09/13 07:16:53;;;;;;;;;22.00;15.25;;;;;19.18;58.27;101356.97;5039363;28;45326;-83
2021/09/13 07:19:19;;;;;;;;;15.75;15.50;;;;;19.17;58.52;101344.72;5037477;28;45679;-83
2021/09/13 07:21:45;;;;;;;;;17.25;14.75;;;;;19.24;58.00;101352.72;5042912;28;45440;-82
2021/09/13 07:24:11;;;;;;;;;20.75;14.50;;;;;19.26;58.45;101351.00;5037371;28;45366;-83
2021/09/13 07:26:37;;;;;;;;;16.00;14.50;;;;;19.31;58.24;101350.22;5035959;28;45375;-82
2021/09/13 07:29:03;;;;;;;;;15.75;13.25;;;;;19.37;58.04;101343.28;5034796;28;45636;-84
2021/09/13 07:31:29;;;;;;;;;23.25;16.50;;;;;19.44;57.75;101346.06;5018201;28;45406;-84
2021/09/13 07:33:55;;;;;;;;;17.00;16.00;;;;;19.51;57.78;101341.78;5016177;28;45391;-84
2021/09/13 07:36:21;;;;;;;;;16.50;15.00;;;;;19.54;57.64;101333.97;5023725;28;45422;-82
2021/09/13 07:38:46;;;;;;;;;17.75;15.75;;;;;19.59;57.21;101334.91;5053304;28;45607;-85
2021/09/13 07:41:12;;;;;;;;;15.75;14.75;;;;;19.61;57.25;101346.34;5038380;28;45413;-83
2021/09/13 07:43:38;;;;;;;;;16.50;16.50;;;;;19.67;57.60;101339.41;5027660;28;45323;-81
2021/09/13 07:46:04;;;;;;;;;15.75;13.25;;;;;19.66;57.22;101328.03;5018618;28;45434;-82
2021/09/13 07:48:29;;;;;;;;;15.50;15.00;;;;;19.70;57.14;101328.94;5024205;28;45538;-82
2021/09/13 07:50:55;;;;;;;;;13.75;13.00;;;;;19.69;56.66;101327.16;5044453;28;46024;-83
2021/09/13 07:53:21;;;;;;;;;13.75;12.75;;;;;19.72;57.30;101330.72;5046326;28;45338;-83
2021/09/13 07:55:47;;;;;;;;;16.25;15.00;;;;;19.77;56.64;101323.81;5041008;28;45326;-84
2021/09/13 07:58:12;;;;;;;;;17.00;15.25;;;;;19.84;57.13;101335.31;5020180;28;45588;-81
2021/09/13 08:00:38;;;;;;;;;15.00;12.50;;;;;19.88;57.16;101323.13;5022664;28;45352;-83
2021/09/13 08:03:04;;;;;;;;;19.75;14.00;;;;;19.94;56.55;101310.94;5038642;28;45275;-83
2021/09/13 08:05:29;;;;;;;;;14.25;13.00;;;;;20.03;56.38;101317.19;5039054;28;45314;-83
2021/09/13 08:07:55;;;;;;;;;15.75;14.50;;;;;20.06;56.32;101306.72;5039445;28;45330;-83
2021/09/13 08:10:24;;;;;;;;;19.25;13.75;;;;;20.12;56.47;101308.56;5038974;28;46612;-83
2021/09/13 08:12:51;;;;;;;;;13.00;12.00;;;;;20.17;56.17;101306.84;5038101;28;45944;-82
2021/09/13 08:15:23;;;;;;;;;17.25;15.00;;;;;20.23;55.92;101302.56;5038092;28;45449;-84
2021/09/13 08:17:50;;;;;;;;;14.25;13.25;;;;;20.35;56.10;101311.47;5055171;28;45481;-83
2021/09/13 08:20:15;;;;;;;;;17.00;14.00;;;;;20.44;55.17;101308.09;5040425;28;46327;-82
2021/09/13 08:22:41;;;;;;;;;11.75;11.25;;;;;20.52;55.55;101304.66;5043390;28;45185;-82
2021/09/13 08:25:07;;;;;;;;;21.50;16.25;;;;;20.63;55.10;101298.63;5041470;28;45275;-81
2021/09/13 08:27:33;;;;;;;;;16.00;12.75;;;;;20.72;54.60;101307.53;5040125;28;45822;-81
2021/09/13 08:29:58;;;;;;;;;15.50;14.00;;;;;20.79;54.67;101313.75;5019480;28;46369;-81
2021/09/13 08:32:24;;;;;;;;;15.25;15.25;;;;;20.81;54.77;101305.88;5018063;28;45257;-82
2021/09/13 08:34:51;;;;;;;;;16.00;16.00;;;;;20.85;54.84;101308.56;5019605;28;45291;-81
2021/09/13 08:37:20;;;;;;;;;14.75;11.75;;;;;20.84;54.68;101312.06;5029439;28;45636;-81
2021/09/13 08:39:46;;;;;;;;;16.25;15.50;;;;;20.84;54.44;101311.19;5036092;28;45452;-81
2021/09/13 08:42:12;;;;;;;;;22.00;16.25;;;;;20.84;55.05;101309.41;5044499;28;45366;-80
2021/09/13 08:44:40;;;;;;;;;16.75;14.75;;;;;20.86;54.57;101306.81;5037135;28;45491;-81
2021/09/13 08:47:25;;;;;;;;;13.00;13.00;;;;;20.85;54.81;101312.94;5051775;28;45462;-82
2021/09/13 08:49:55;;;;;;;;;17.00;14.75;;;;;20.85;55.00;101315.59;5064377;28;45290;-81
2021/09/13 08:52:21;;;;;;;;;14.75;11.25;;;;;20.82;54.68;101308.53;5060646;28;45876;-83
2021/09/13 08:54:47;;;;;;;;;14.00;13.75;;;;;20.80;54.91;101317.25;5050599;28;45488;-83
2021/09/13 08:57:17;;;;;;;;;11.25;10.00;;;;;20.83;54.30;101326.09;5032635;28;45433;-83
2021/09/13 08:59:45;;;;;;;;;11.50;10.50;;;;;20.83;53.85;101322.56;5039040;28;45211;-82
2021/09/13 09:02:15;;;;;;;;;12.00;9.00;;;;;20.84;53.92;101333.09;5036573;28;45406;-82
2021/09/13 09:04:44;;;;;;;;;10.25;9.75;;;;;20.87;53.19;101329.66;5024121;28;45397;-81
2021/09/13 09:07:22;;;;;;;;;7.75;7.75;;;;;20.85;53.73;101320.84;5036445;28;45374;-81
2021/09/13 09:10:08;;;;;;;;;12.50;10.00;;;;;20.88;53.74;101328.78;5037678;28;46122;-84
2021/09/13 09:13:00;;;;;;;;;14.00;11.50;;;;;20.93;53.53;101327.06;5052572;28;45834;-87
2021/09/13 09:15:31;;;;;;;;;13.75;10.50;;;;;20.93;53.35;101327.06;5042358;28;46171;-89
2021/09/13 09:18:00;;;;;;;;;13.25;11.25;;;;;20.98;53.40;101335.00;5035728;28;45465;-85
2021/09/13 09:20:27;;;;;;;;;11.25;9.50;;;;;20.97;53.67;101330.59;5053690;28;46842;-86
2021/09/13 09:23:03;;;;;;;;;10.25;9.25;;;;;21.00;53.58;101323.63;5045957;28;45759;-87
2021/09/13 09:25:37;;;;;;;;;10.25;10.00;;;;;21.07;53.25;101327.19;5029381;28;45433;-89
2021/09/13 09:28:19;;;;;;;;;9.50;9.00;;;;;21.11;52.86;101328.13;5016274;28;45435;-86
2021/09/13 09:30:47;;;;;;;;;9.25;9.25;;;;;21.14;52.82;101321.13;5032623;28;47923;-88
2021/09/13 09:33:26;;;;;;;;;9.75;9.75;;;;;21.11;53.19;101312.34;5023103;28;46095;-86
2021/09/13 09:35:55;;;;;;;;;10.50;10.50;;;;;21.18;52.71;101320.28;5034010;28;45408;-87
2021/09/13 09:38:35;;;;;;;;;11.00;9.75;;;;;21.24;52.97;101321.22;5034643;28;45559;-86
2021/09/13 09:41:05;;;;;;;;;10.75;9.00;;;;;21.23;53.08;101317.69;5035927;28;47738;-87
2021/09/13 09:43:47;;;;;;;;;8.25;8.25;;;;;21.24;52.83;101301.00;5053196;28;45600;-83
2021/09/13 09:46:12;;;;;;;;;7.25;7.00;;;;;21.29;52.66;101317.75;5033354;28;45529;-85
2021/09/13 09:48:40;;;;;;;;;9.50;9.00;;;;;21.30;52.99;101305.44;5058815;28;45379;-86
2021/09/13 09:51:29;;;;;;;;;11.50;9.00;;;;;21.31;52.89;101294.94;5023281;28;45966;-83
2021/09/13 09:53:59;;;;;;;;;10.75;8.00;;;;;21.33;53.43;101297.59;5017090;28;45302;-84
2021/09/13 09:56:26;;;;;;;;;11.00;9.75;;;;;21.31;53.07;101289.69;5017070;28;45485;-83
2021/09/13 09:59:05;;;;;;;;;9.25;8.00;;;;;21.39;53.31;101294.13;5016156;28;45513;-85
2021/09/13 10:01:45;;;;;;;;;11.00;9.75;;;;;21.44;53.22;101292.38;5018064;28;46051;-84
2021/09/13 10:04:19;;;;;;;;;10.00;9.25;;;;;21.47;53.15;101287.16;5034148;28;45741;-85
2021/09/13 10:06:51;;;;;;;;;8.25;7.75;;;;;21.47;52.57;101276.59;5039858;28;45311;-84
2021/09/13 10:09:18;;;;;;;;;7.00;6.50;;;;;21.53;52.82;101263.50;5042917;28;45327;-84
2021/09/13 10:11:47;;;;;;;;;10.50;9.75;;;;;21.51;52.78;101262.59;5053358;28;46590;-86
2021/09/13 10:14:17;;;;;;;;;7.25;6.25;;;;;21.52;52.72;101251.19;5045828;28;45682;-87
2021/09/13 10:16:48;;;;;;;;;7.00;7.00;;;;;21.54;52.77;101249.47;5055992;28;45435;-87
2021/09/13 10:19:28;;;;;;;;;8.25;8.00;;;;;21.59;52.33;101260.06;5035500;28;45466;-84
2021/09/13 10:22:10;;;;;;;;;7.50;6.50;;;;;21.57;52.81;101257.34;5042651;28;45682;-86
2021/09/13 10:24:49;;;;;;;;;6.75;6.75;;;;;21.64;52.41;101253.03;5055062;28;45437;-82
2021/09/13 10:27:17;;;;;;;;;10.00;8.00;;;;;21.69;52.19;101245.16;5059052;28;45516;-86
2021/09/13 10:29:43;;;;;;;;;9.75;7.75;;;;;21.77;51.88;101260.16;5036952;28;45503;-83
2021/09/13 10:32:13;;;;;;;;;7.00;6.00;;;;;21.77;52.23;101256.63;5033936;28;46564;-84
2021/09/13 10:34:43;;;;;;;;;8.00;6.00;;;;;21.83;52.19;101253.13;5022642;28;45367;-83
2021/09/13 10:37:16;;;;;;;;;9.75;7.25;;;;;21.86;52.05;101254.06;5024303;28;45350;-84
2021/09/13 10:40:02;;;;;;;;;6.50;6.25;;;;;21.88;51.92;101256.69;5037922;28;45436;-86
2021/09/13 10:42:41;;;;;;;;;5.50;5.50;;;;;21.90;51.59;101253.19;5041830;28;46655;-86
2021/09/13 10:45:10;;;;;;;;;6.75;5.75;;;;;21.95;51.49;101251.47;5043174;28;45751;-84
2021/09/13 10:47:37;;;;;;;;;5.75;4.00;;;;;21.98;51.50;101241.78;5043952;28;45313;-87
2021/09/13 10:50:34;;;;;;;;;5.00;4.75;;;;;21.99;51.31;101244.44;5040070;28;45476;-88
2021/09/13 10:53:22;;;;;;;;;5.00;3.25;;;;;22.02;51.34;101236.56;5042939;28;46640;-88
2021/09/13 10:55:55;;;;;;;;;5.00;5.00;;;;;22.03;51.21;101234.78;5042637;28;45365;-85
2021/09/13 10:58:30;;;;;;;;;6.00;4.00;;;;;22.10;51.24;101234.81;5054600;28;45454;-85
2021/09/13 11:01:01;;;;;;;;;8.00;6.25;;;;;22.11;51.08;101225.13;5054699;28;45444;-89
2021/09/13 11:03:32;;;;;;;;;7.00;5.50;;;;;22.18;50.97;101220.78;5056913;28;47765;-86
2021/09/13 11:06:13;;;;;;;;;5.00;4.00;;;;;22.22;50.42;101223.44;5040983;28;45310;-87
2021/09/13 11:08:44;;;;;;;;;7.25;5.25;;;;;22.24;50.56;101210.25;5043150;28;45254;-87
2021/09/13 11:11:25;;;;;;;;;5.50;5.00;;;;;22.27;50.44;101208.50;5062083;28;45501;-87
2021/09/13 11:14:06;;;;;;;;;10.00;6.25;;;;;22.31;50.40;101212.03;5052798;28;45330;-88
2021/09/13 11:16:37;;;;;;;;;7.25;7.25;;;;;22.29;50.37;101202.34;5049560;28;45712;-87
2021/09/13 11:19:16;;;;;;;;;4.75;4.00;;;;;22.35;50.44;101207.63;5052473;28;45347;-87
2021/09/13 11:22:03;;;;;;;;;7.00;6.75;;;;;22.35;50.36;101197.09;5048842;28;45496;-86
2021/09/13 11:24:31;;;;;;;;;7.25;6.25;;;;;22.33;50.33;101188.28;5060525;28;47821;-86
2021/09/13 11:26:59;;;;;;;;;4.75;4.75;;;;;22.44;50.40;101197.13;5044644;28;45804;-87
2021/09/13 11:29:26;;;;;;;;;9.00;7.25;;;;;22.44;50.59;101197.13;5041910;28;45388;-88